sensor_id;sensor_type;location;lat;lon;timestamp;P1;durP1;ratioP1;P2;durP2;ratioP2
68944;SDS011;55984;48.790;8.990;2023-02-28T10:14:39;7.20;;;3.30;;
68944;SDS011;55984;48.790;8.990;2023-02-28T10:17:16;6.73;;;3.07;;
68944;SDS011;55984;48.790;8.990;2023-02-28T10:19:54;4.97;;;3.20;;
68944;SDS011;55984;48.790;8.990;2023-02-28T10:25:34;6.33;;;3.20;;
68944;SDS011;55984;48.790;8.990;2023-02-28T10:28:12;5.00;;;3.10;;
68944;SDS011;55984;48.790;8.990;2023-02-28T10:30:44;5.17;;;3.40;;
68944;SDS011;55984;48.790;8.990;2023-02-28T10:33:16;3.93;;;3.33;;
68944;SDS011;55984;48.790;8.990;2023-02-28T10:35:47;5.50;;;3.60;;
68944;SDS011;55984;48.790;8.990;2023-02-28T10:38:17;5.13;;;3.40;;
68944;SDS011;55984;48.790;8.990;2023-02-28T10:40:47;5.90;;;3.80;;
68944;SDS011;55984;48.790;8.990;2023-02-28T10:45:38;6.07;;;3.33;;
68944;SDS011;55984;48.790;8.990;2023-02-28T10:50:42;4.50;;;3.30;;
68944;SDS011;55984;48.790;8.990;2023-02-28T10:55:56;4.43;;;3.13;;
68944;SDS011;55984;48.790;8.990;2023-02-28T10:58:52;5.90;;;3.20;;
68944;SDS011;55984;48.790;8.990;2023-02-28T11:01:38;6.47;;;3.70;;
68944;SDS011;55984;48.790;8.990;2023-02-28T11:09:50;6.43;;;3.37;;
68944;SDS011;55984;48.790;8.990;2023-02-28T11:12:22;4.93;;;3.13;;
68944;SDS011;55984;48.790;8.990;2023-02-28T11:15:00;4.77;;;3.70;;
68944;SDS011;55984;48.790;8.990;2023-02-28T11:17:30;5.40;;;3.60;;
68944;SDS011;55984;48.790;8.990;2023-02-28T11:19:58;5.83;;;3.33;;
68944;SDS011;55984;48.790;8.990;2023-02-28T11:22:32;6.70;;;3.27;;
68944;SDS011;55984;48.790;8.990;2023-02-28T11:25:08;9.10;;;3.60;;
68944;SDS011;55984;48.790;8.990;2023-02-28T11:27:50;7.50;;;3.60;;
68944;SDS011;55984;48.790;8.990;2023-02-28T11:30:25;4.40;;;3.33;;
68944;SDS011;55984;48.790;8.990;2023-02-28T11:35:53;5.53;;;3.53;;
68944;SDS011;55984;48.790;8.990;2023-02-28T11:38:26;5.13;;;3.60;;
68944;SDS011;55984;48.790;8.990;2023-02-28T11:49:21;4.60;;;3.80;;
68944;SDS011;55984;48.790;8.990;2023-02-28T11:51:58;4.90;;;3.67;;
68944;SDS011;55984;48.790;8.990;2023-02-28T11:54:55;6.57;;;3.60;;
68944;SDS011;55984;48.790;8.990;2023-02-28T11:57:58;5.20;;;3.90;;
68944;SDS011;55984;48.790;8.990;2023-02-28T12:03:45;7.00;;;4.53;;
68944;SDS011;55984;48.790;8.990;2023-02-28T12:06:26;6.30;;;4.10;;
68944;SDS011;55984;48.790;8.990;2023-02-28T12:12:31;8.47;;;4.47;;
68944;SDS011;55984;48.790;8.990;2023-02-28T12:15:41;5.80;;;4.40;;
68944;SDS011;55984;48.790;8.990;2023-02-28T12:21:26;9.47;;;4.30;;
68944;SDS011;55984;48.790;8.990;2023-02-28T12:24:50;8.30;;;4.57;;
68944;SDS011;55984;48.790;8.990;2023-02-28T12:27:25;9.10;;;4.80;;
68944;SDS011;55984;48.790;8.990;2023-02-28T12:30:00;10.90;;;4.83;;
68944;SDS011;55984;48.790;8.990;2023-02-28T12:32:42;7.80;;;4.73;;
68944;SDS011;55984;48.790;8.990;2023-02-28T12:35:16;9.60;;;5.03;;
68944;SDS011;55984;48.790;8.990;2023-02-28T12:37:51;9.43;;;4.67;;
68944;SDS011;55984;48.790;8.990;2023-02-28T12:40:28;8.93;;;4.80;;
68944;SDS011;55984;48.790;8.990;2023-02-28T12:43:07;10.10;;;5.00;;
68944;SDS011;55984;48.790;8.990;2023-02-28T12:48:17;12.63;;;5.17;;
68944;SDS011;55984;48.790;8.990;2023-02-28T12:50:49;10.00;;;5.20;;
68944;SDS011;55984;48.790;8.990;2023-02-28T12:53:21;10.17;;;5.00;;
68944;SDS011;55984;48.790;8.990;2023-02-28T13:00:36;10.23;;;5.10;;
68944;SDS011;55984;48.790;8.990;2023-02-28T13:03:21;8.83;;;4.90;;
68944;SDS011;55984;48.790;8.990;2023-02-28T13:11:01;6.97;;;4.80;;
68944;SDS011;55984;48.790;8.990;2023-02-28T13:13:27;8.73;;;5.20;;
68944;SDS011;55984;48.790;8.990;2023-02-28T13:16:07;10.23;;;5.20;;
68944;SDS011;55984;48.790;8.990;2023-02-28T13:18:35;8.90;;;4.87;;
68944;SDS011;55984;48.790;8.990;2023-02-28T13:21:04;9.70;;;5.53;;
68944;SDS011;55984;48.790;8.990;2023-02-28T13:23:39;8.30;;;5.03;;
68944;SDS011;55984;48.790;8.990;2023-02-28T13:34:30;8.27;;;4.80;;
68944;SDS011;55984;48.790;8.990;2023-02-28T13:37:30;8.13;;;5.10;;
68944;SDS011;55984;48.790;8.990;2023-02-28T13:47:30;13.40;;;4.90;;
68944;SDS011;55984;48.790;8.990;2023-02-28T13:55:49;9.67;;;5.27;;
68944;SDS011;55984;48.790;8.990;2023-02-28T14:01:03;10.57;;;5.10;;
68944;SDS011;55984;48.790;8.990;2023-02-28T14:03:39;9.30;;;5.90;;
68944;SDS011;55984;48.790;8.990;2023-02-28T14:09:06;9.73;;;4.70;;
68944;SDS011;55984;48.790;8.990;2023-02-28T14:11:46;12.00;;;5.10;;
68944;SDS011;55984;48.790;8.990;2023-02-28T14:14:57;7.13;;;5.27;;
68944;SDS011;55984;48.790;8.990;2023-02-28T14:17:01;11.27;;;5.20;;
68944;SDS011;55984;48.790;8.990;2023-02-28T14:19:29;8.33;;;5.60;;
68944;SDS011;55984;48.790;8.990;2023-02-28T14:25:13;9.30;;;5.00;;
68944;SDS011;55984;48.790;8.990;2023-02-28T14:36:01;7.53;;;4.90;;
68944;SDS011;55984;48.790;8.990;2023-02-28T14:38:39;8.40;;;4.87;;
68944;SDS011;55984;48.790;8.990;2023-02-28T14:41:18;9.40;;;5.30;;
68944;SDS011;55984;48.790;8.990;2023-02-28T14:43:54;9.30;;;5.30;;
68944;SDS011;55984;48.790;8.990;2023-02-28T14:46:21;9.47;;;5.00;;
68944;SDS011;55984;48.790;8.990;2023-02-28T14:48:49;11.33;;;4.50;;
68944;SDS011;55984;48.790;8.990;2023-02-28T14:51:18;8.70;;;5.20;;
68944;SDS011;55984;48.790;8.990;2023-02-28T14:53:46;8.47;;;5.07;;
68944;SDS011;55984;48.790;8.990;2023-02-28T14:56:22;9.27;;;4.77;;
68944;SDS011;55984;48.790;8.990;2023-02-28T14:58:56;8.73;;;5.10;;
68944;SDS011;55984;48.790;8.990;2023-02-28T15:01:22;8.03;;;5.07;;
68944;SDS011;55984;48.790;8.990;2023-02-28T15:03:56;9.07;;;5.20;;
68944;SDS011;55984;48.790;8.990;2023-02-28T15:06:24;8.73;;;4.90;;
68944;SDS011;55984;48.790;8.990;2023-02-28T15:09:05;10.30;;;5.27;;
68944;SDS011;55984;48.790;8.990;2023-02-28T15:11:35;8.60;;;5.47;;
68944;SDS011;55984;48.790;8.990;2023-02-28T15:14:02;11.33;;;5.10;;
68944;SDS011;55984;48.790;8.990;2023-02-28T15:16:30;7.33;;;4.60;;
68944;SDS011;55984;48.790;8.990;2023-02-28T15:19:21;11.70;;;4.97;;
68944;SDS011;55984;48.790;8.990;2023-02-28T15:21:48;7.50;;;4.67;;
68944;SDS011;55984;48.790;8.990;2023-02-28T15:26:59;9.60;;;5.30;;
68944;SDS011;55984;48.790;8.990;2023-02-28T15:29:28;9.73;;;4.90;;
68944;SDS011;55984;48.790;8.990;2023-02-28T15:32:01;12.37;;;5.33;;
68944;SDS011;55984;48.790;8.990;2023-02-28T15:34:33;8.77;;;4.67;;
68944;SDS011;55984;48.790;8.990;2023-02-28T15:37:01;7.20;;;4.93;;
68944;SDS011;55984;48.790;8.990;2023-02-28T15:39:27;6.60;;;5.13;;
68944;SDS011;55984;48.790;8.990;2023-02-28T15:43:29;8.20;;;4.60;;
68944;SDS011;55984;48.790;8.990;2023-02-28T15:48:36;8.70;;;5.40;;
68944;SDS011;55984;48.790;8.990;2023-02-28T15:51:31;8.60;;;4.57;;
68944;SDS011;55984;48.790;8.990;2023-02-28T15:54:05;8.70;;;4.50;;
68944;SDS011;55984;48.790;8.990;2023-02-28T15:56:43;10.13;;;4.23;;
68944;SDS011;55984;48.790;8.990;2023-02-28T15:59:19;17.33;;;5.20;;
68944;SDS011;55984;48.790;8.990;2023-02-28T16:07:23;53.33;;;6.27;;
68944;SDS011;55984;48.790;8.990;2023-02-28T16:09:49;6.67;;;4.77;;
68944;SDS011;55984;48.790;8.990;2023-02-28T16:12:15;6.07;;;4.70;;
68944;SDS011;55984;48.790;8.990;2023-02-28T16:14:41;8.20;;;4.70;;
68944;SDS011;55984;48.790;8.990;2023-02-28T16:17:08;7.37;;;4.60;;
68944;SDS011;55984;48.790;8.990;2023-02-28T16:19:46;7.87;;;4.63;;
68944;SDS011;55984;48.790;8.990;2023-02-28T16:22:11;7.87;;;4.40;;
68944;SDS011;55984;48.790;8.990;2023-02-28T16:24:37;8.80;;;4.80;;
68944;SDS011;55984;48.790;8.990;2023-02-28T16:27:03;9.37;;;4.60;;
68944;SDS011;55984;48.790;8.990;2023-02-28T16:29:30;12.20;;;4.43;;
68944;SDS011;55984;48.790;8.990;2023-02-28T16:32:00;8.30;;;4.33;;
68944;SDS011;55984;48.790;8.990;2023-02-28T16:34:27;12.07;;;4.80;;
68944;SDS011;55984;48.790;8.990;2023-02-28T16:36:53;8.10;;;4.37;;
68944;SDS011;55984;48.790;8.990;2023-02-28T16:39:18;7.40;;;4.13;;
68944;SDS011;55984;48.790;8.990;2023-02-28T16:41:47;6.97;;;4.47;;
68944;SDS011;55984;48.790;8.990;2023-02-28T16:44:27;8.30;;;4.30;;
68944;SDS011;55984;48.790;8.990;2023-02-28T16:46:59;7.93;;;4.13;;
68944;SDS011;55984;48.790;8.990;2023-02-28T16:49:26;7.13;;;4.57;;
68944;SDS011;55984;48.790;8.990;2023-02-28T16:51:52;6.60;;;4.20;;
68944;SDS011;55984;48.790;8.990;2023-02-28T16:54:18;7.60;;;4.60;;
68944;SDS011;55984;48.790;8.990;2023-02-28T16:56:44;7.90;;;4.30;;
68944;SDS011;55984;48.790;8.990;2023-02-28T16:59:13;6.43;;;4.10;;
68944;SDS011;55984;48.790;8.990;2023-02-28T17:01:43;6.60;;;4.20;;
68944;SDS011;55984;48.790;8.990;2023-02-28T17:04:09;7.90;;;4.23;;
68944;SDS011;55984;48.790;8.990;2023-02-28T17:06:36;6.80;;;4.70;;
68944;SDS011;55984;48.790;8.990;2023-02-28T17:09:02;5.30;;;4.00;;
68944;SDS011;55984;48.790;8.990;2023-02-28T17:11:27;6.50;;;4.43;;
68944;SDS011;55984;48.790;8.990;2023-02-28T17:13:53;5.90;;;4.33;;
68944;SDS011;55984;48.790;8.990;2023-02-28T17:16:52;7.60;;;4.57;;
68944;SDS011;55984;48.790;8.990;2023-02-28T17:19:13;7.47;;;3.90;;
68944;SDS011;55984;48.790;8.990;2023-02-28T17:21:40;6.80;;;4.10;;
68944;SDS011;55984;48.790;8.990;2023-02-28T17:24:07;6.80;;;4.33;;
68944;SDS011;55984;48.790;8.990;2023-02-28T17:26:33;5.67;;;4.20;;
68944;SDS011;55984;48.790;8.990;2023-02-28T17:28:58;5.60;;;4.13;;
68944;SDS011;55984;48.790;8.990;2023-02-28T17:31:25;7.67;;;4.23;;
68944;SDS011;55984;48.790;8.990;2023-02-28T17:33:52;7.57;;;4.20;;
68944;SDS011;55984;48.790;8.990;2023-02-28T17:36:23;7.53;;;4.83;;
68944;SDS011;55984;48.790;8.990;2023-02-28T17:38:51;6.23;;;4.40;;
68944;SDS011;55984;48.790;8.990;2023-02-28T17:41:19;7.17;;;4.50;;
68944;SDS011;55984;48.790;8.990;2023-02-28T17:43:46;5.10;;;3.93;;
68944;SDS011;55984;48.790;8.990;2023-02-28T17:46:16;8.33;;;4.33;;
68944;SDS011;55984;48.790;8.990;2023-02-28T17:48:45;8.20;;;4.53;;
68944;SDS011;55984;48.790;8.990;2023-02-28T17:51:18;7.10;;;3.73;;
68944;SDS011;55984;48.790;8.990;2023-02-28T17:53:46;7.40;;;4.00;;
68944;SDS011;55984;48.790;8.990;2023-02-28T17:56:13;6.80;;;3.97;;
68944;SDS011;55984;48.790;8.990;2023-02-28T17:59:13;6.43;;;4.10;;
68944;SDS011;55984;48.790;8.990;2023-02-28T18:01:39;7.23;;;4.30;;
68944;SDS011;55984;48.790;8.990;2023-02-28T18:04:04;5.70;;;4.10;;
68944;SDS011;55984;48.790;8.990;2023-02-28T18:06:40;6.50;;;4.83;;
68944;SDS011;55984;48.790;8.990;2023-02-28T18:09:13;5.93;;;3.83;;
68944;SDS011;55984;48.790;8.990;2023-02-28T18:11:40;6.33;;;4.10;;
68944;SDS011;55984;48.790;8.990;2023-02-28T18:14:13;6.57;;;4.77;;
68944;SDS011;55984;48.790;8.990;2023-02-28T18:16:40;6.03;;;4.33;;
68944;SDS011;55984;48.790;8.990;2023-02-28T18:19:07;7.20;;;4.50;;
68944;SDS011;55984;48.790;8.990;2023-02-28T18:21:38;5.07;;;3.90;;
68944;SDS011;55984;48.790;8.990;2023-02-28T18:24:11;4.67;;;3.93;;
68944;SDS011;55984;48.790;8.990;2023-02-28T18:26:37;6.70;;;4.23;;
68944;SDS011;55984;48.790;8.990;2023-02-28T18:29:04;7.00;;;4.43;;
68944;SDS011;55984;48.790;8.990;2023-02-28T18:31:31;8.50;;;4.10;;
68944;SDS011;55984;48.790;8.990;2023-02-28T18:33:57;7.77;;;4.87;;
68944;SDS011;55984;48.790;8.990;2023-02-28T18:36:24;8.70;;;4.00;;
68944;SDS011;55984;48.790;8.990;2023-02-28T18:38:50;5.43;;;4.20;;
68944;SDS011;55984;48.790;8.990;2023-02-28T18:41:17;6.90;;;4.53;;
68944;SDS011;55984;48.790;8.990;2023-02-28T18:43:47;10.50;;;4.53;;
68944;SDS011;55984;48.790;8.990;2023-02-28T18:46:14;9.63;;;4.20;;
68944;SDS011;55984;48.790;8.990;2023-02-28T18:48:42;8.57;;;4.53;;
68944;SDS011;55984;48.790;8.990;2023-02-28T18:51:12;6.60;;;4.37;;
68944;SDS011;55984;48.790;8.990;2023-02-28T18:53:42;6.20;;;4.10;;
68944;SDS011;55984;48.790;8.990;2023-02-28T18:56:09;6.03;;;4.33;;
68944;SDS011;55984;48.790;8.990;2023-02-28T18:58:40;6.50;;;4.30;;
68944;SDS011;55984;48.790;8.990;2023-02-28T19:01:16;7.10;;;4.13;;
68944;SDS011;55984;48.790;8.990;2023-02-28T19:03:48;7.70;;;4.80;;
68944;SDS011;55984;48.790;8.990;2023-02-28T19:06:15;8.17;;;4.60;;
68944;SDS011;55984;48.790;8.990;2023-02-28T19:08:42;8.03;;;4.20;;
68944;SDS011;55984;48.790;8.990;2023-02-28T19:11:13;6.57;;;4.60;;
68944;SDS011;55984;48.790;8.990;2023-02-28T19:13:41;7.33;;;4.30;;
68944;SDS011;55984;48.790;8.990;2023-02-28T19:16:09;7.10;;;4.50;;
68944;SDS011;55984;48.790;8.990;2023-02-28T19:18:36;6.47;;;4.53;;
68944;SDS011;55984;48.790;8.990;2023-02-28T19:21:01;5.53;;;3.90;;
68944;SDS011;55984;48.790;8.990;2023-02-28T19:23:27;7.00;;;5.20;;
68944;SDS011;55984;48.790;8.990;2023-02-28T19:25:53;7.47;;;4.13;;
68944;SDS011;55984;48.790;8.990;2023-02-28T19:28:20;7.93;;;4.70;;
68944;SDS011;55984;48.790;8.990;2023-02-28T19:30:47;5.37;;;4.20;;
68944;SDS011;55984;48.790;8.990;2023-02-28T19:33:17;6.03;;;4.90;;
68944;SDS011;55984;48.790;8.990;2023-02-28T19:35:44;8.37;;;4.77;;
68944;SDS011;55984;48.790;8.990;2023-02-28T19:38:10;7.47;;;4.57;;
68944;SDS011;55984;48.790;8.990;2023-02-28T19:40:35;6.30;;;4.30;;
68944;SDS011;55984;48.790;8.990;2023-02-28T19:43:01;6.67;;;4.50;;
68944;SDS011;55984;48.790;8.990;2023-02-28T19:45:27;7.20;;;4.63;;
68944;SDS011;55984;48.790;8.990;2023-02-28T19:47:53;5.90;;;4.30;;
68944;SDS011;55984;48.790;8.990;2023-02-28T19:50:19;6.10;;;4.80;;
68944;SDS011;55984;48.790;8.990;2023-02-28T19:52:46;7.20;;;4.23;;
68944;SDS011;55984;48.790;8.990;2023-02-28T19:55:13;5.47;;;4.40;;
68944;SDS011;55984;48.790;8.990;2023-02-28T19:57:39;6.37;;;4.33;;
68944;SDS011;55984;48.790;8.990;2023-02-28T20:00:05;7.00;;;4.50;;
68944;SDS011;55984;48.790;8.990;2023-02-28T20:02:32;4.40;;;3.90;;
68944;SDS011;55984;48.790;8.990;2023-02-28T20:04:57;5.70;;;4.13;;
68944;SDS011;55984;48.790;8.990;2023-02-28T20:07:24;6.13;;;4.73;;
68944;SDS011;55984;48.790;8.990;2023-02-28T20:09:50;5.90;;;4.00;;
68944;SDS011;55984;48.790;8.990;2023-02-28T20:12:15;6.43;;;5.03;;
68944;SDS011;55984;48.790;8.990;2023-02-28T20:14:41;5.17;;;4.10;;
68944;SDS011;55984;48.790;8.990;2023-02-28T20:17:07;5.57;;;4.30;;
68944;SDS011;55984;48.790;8.990;2023-02-28T20:19:33;6.80;;;4.40;;
68944;SDS011;55984;48.790;8.990;2023-02-28T20:22:00;5.90;;;4.30;;
68944;SDS011;55984;48.790;8.990;2023-02-28T20:24:26;7.17;;;4.60;;
68944;SDS011;55984;48.790;8.990;2023-02-28T20:26:53;5.50;;;4.20;;
68944;SDS011;55984;48.790;8.990;2023-02-28T20:29:21;5.60;;;4.13;;
68944;SDS011;55984;48.790;8.990;2023-02-28T20:31:47;5.90;;;4.30;;
68944;SDS011;55984;48.790;8.990;2023-02-28T20:34:13;6.63;;;4.20;;
68944;SDS011;55984;48.790;8.990;2023-02-28T20:36:39;5.80;;;4.60;;
68944;SDS011;55984;48.790;8.990;2023-02-28T20:39:04;5.63;;;4.27;;
68944;SDS011;55984;48.790;8.990;2023-02-28T20:41:31;6.40;;;4.50;;
68944;SDS011;55984;48.790;8.990;2023-02-28T20:43:57;5.83;;;4.40;;
68944;SDS011;55984;48.790;8.990;2023-02-28T20:46:24;5.80;;;4.33;;
68944;SDS011;55984;48.790;8.990;2023-02-28T20:48:50;5.87;;;4.00;;
68944;SDS011;55984;48.790;8.990;2023-02-28T20:51:16;6.83;;;4.20;;
68944;SDS011;55984;48.790;8.990;2023-02-28T20:53:41;6.47;;;4.40;;
68944;SDS011;55984;48.790;8.990;2023-02-28T20:56:09;6.00;;;4.50;;
68944;SDS011;55984;48.790;8.990;2023-02-28T20:58:39;5.40;;;4.07;;
68944;SDS011;55984;48.790;8.990;2023-02-28T21:01:06;6.13;;;4.40;;
68944;SDS011;55984;48.790;8.990;2023-02-28T21:03:45;6.77;;;4.40;;
68944;SDS011;55984;48.790;8.990;2023-02-28T21:06:13;6.10;;;4.30;;
68944;SDS011;55984;48.790;8.990;2023-02-28T21:08:41;5.83;;;4.57;;
68944;SDS011;55984;48.790;8.990;2023-02-28T21:11:11;5.73;;;4.07;;
68944;SDS011;55984;48.790;8.990;2023-02-28T21:13:42;6.00;;;4.63;;
68944;SDS011;55984;48.790;8.990;2023-02-28T21:16:10;6.17;;;4.37;;
68944;SDS011;55984;48.790;8.990;2023-02-28T21:18:41;6.10;;;4.40;;
68944;SDS011;55984;48.790;8.990;2023-02-28T21:21:08;6.80;;;4.30;;
68944;SDS011;55984;48.790;8.990;2023-02-28T21:23:38;6.53;;;4.50;;
68944;SDS011;55984;48.790;8.990;2023-02-28T21:26:05;8.60;;;4.30;;
68944;SDS011;55984;48.790;8.990;2023-02-28T21:28:33;7.67;;;4.83;;
68944;SDS011;55984;48.790;8.990;2023-02-28T21:31:33;6.23;;;4.40;;
68944;SDS011;55984;48.790;8.990;2023-02-28T21:34:01;5.93;;;4.50;;
68944;SDS011;55984;48.790;8.990;2023-02-28T21:36:30;5.00;;;4.00;;
68944;SDS011;55984;48.790;8.990;2023-02-28T21:39:02;6.77;;;4.17;;
68944;SDS011;55984;48.790;8.990;2023-02-28T21:41:32;7.60;;;4.50;;
68944;SDS011;55984;48.790;8.990;2023-02-28T21:43:58;6.50;;;4.70;;
68944;SDS011;55984;48.790;8.990;2023-02-28T21:46:24;7.27;;;4.50;;
68944;SDS011;55984;48.790;8.990;2023-02-28T21:48:52;8.17;;;4.83;;
68944;SDS011;55984;48.790;8.990;2023-02-28T21:51:19;9.67;;;4.73;;
68944;SDS011;55984;48.790;8.990;2023-02-28T21:53:50;6.40;;;4.50;;
68944;SDS011;55984;48.790;8.990;2023-02-28T21:56:20;8.50;;;4.40;;
68944;SDS011;55984;48.790;8.990;2023-02-28T22:01:03;5.80;;;4.70;;
68944;SDS011;55984;48.790;8.990;2023-02-28T22:03:32;7.57;;;4.60;;
68944;SDS011;55984;48.790;8.990;2023-02-28T22:05:58;6.40;;;4.70;;
68944;SDS011;55984;48.790;8.990;2023-02-28T22:08:23;6.10;;;4.50;;
68944;SDS011;55984;48.790;8.990;2023-02-28T22:10:49;6.87;;;4.80;;
68944;SDS011;55984;48.790;8.990;2023-02-28T22:13:14;7.90;;;4.83;;
68944;SDS011;55984;48.790;8.990;2023-02-28T22:15:40;6.67;;;4.93;;
68944;SDS011;55984;48.790;8.990;2023-02-28T22:18:05;8.73;;;4.77;;
68944;SDS011;55984;48.790;8.990;2023-02-28T22:20:31;6.30;;;4.60;;
68944;SDS011;55984;48.790;8.990;2023-02-28T22:22:56;7.70;;;5.03;;
68944;SDS011;55984;48.790;8.990;2023-02-28T22:25:22;6.87;;;4.63;;
68944;SDS011;55984;48.790;8.990;2023-02-28T22:27:47;6.23;;;4.97;;
68944;SDS011;55984;48.790;8.990;2023-02-28T22:30:13;6.50;;;4.67;;
68944;SDS011;55984;48.790;8.990;2023-02-28T22:32:39;9.07;;;4.70;;
68944;SDS011;55984;48.790;8.990;2023-02-28T22:35:05;9.57;;;4.50;;
68944;SDS011;55984;48.790;8.990;2023-02-28T22:37:31;7.63;;;5.00;;
68944;SDS011;55984;48.790;8.990;2023-02-28T22:39:57;6.40;;;4.70;;
68944;SDS011;55984;48.790;8.990;2023-02-28T22:42:22;7.63;;;4.80;;
68944;SDS011;55984;48.790;8.990;2023-02-28T22:44:50;6.57;;;4.67;;
68944;SDS011;55984;48.790;8.990;2023-02-28T22:47:16;6.27;;;4.40;;
68944;SDS011;55984;48.790;8.990;2023-02-28T22:49:41;7.70;;;4.90;;
68944;SDS011;55984;48.790;8.990;2023-02-28T22:52:07;7.20;;;4.63;;
68944;SDS011;55984;48.790;8.990;2023-02-28T22:54:33;10.23;;;4.47;;
68944;SDS011;55984;48.790;8.990;2023-02-28T22:56:58;8.07;;;4.63;;
68944;SDS011;55984;48.790;8.990;2023-02-28T22:59:23;11.53;;;4.50;;
68944;SDS011;55984;48.790;8.990;2023-02-28T23:01:49;9.47;;;4.80;;
68944;SDS011;55984;48.790;8.990;2023-02-28T23:04:14;7.90;;;4.53;;
68944;SDS011;55984;48.790;8.990;2023-02-28T23:06:40;6.83;;;4.50;;
68944;SDS011;55984;48.790;8.990;2023-02-28T23:09:16;5.60;;;4.47;;
68944;SDS011;55984;48.790;8.990;2023-02-28T23:11:44;9.37;;;4.40;;
68944;SDS011;55984;48.790;8.990;2023-02-28T23:14:12;14.13;;;4.43;;
68944;SDS011;55984;48.790;8.990;2023-02-28T23:16:42;7.53;;;4.80;;
68944;SDS011;55984;48.790;8.990;2023-02-28T23:19:23;6.53;;;4.60;;
68944;SDS011;55984;48.790;8.990;2023-02-28T23:21:53;5.77;;;4.20;;
68944;SDS011;55984;48.790;8.990;2023-02-28T23:24:21;7.10;;;4.60;;
68944;SDS011;55984;48.790;8.990;2023-02-28T23:26:49;6.77;;;4.20;;
68944;SDS011;55984;48.790;8.990;2023-02-28T23:29:18;8.90;;;4.80;;
68944;SDS011;55984;48.790;8.990;2023-02-28T23:31:45;7.90;;;4.60;;
68944;SDS011;55984;48.790;8.990;2023-02-28T23:34:11;7.43;;;4.20;;
68944;SDS011;55984;48.790;8.990;2023-02-28T23:36:38;9.40;;;5.70;;
68944;SDS011;55984;48.790;8.990;2023-02-28T23:39:09;7.13;;;4.50;;
68944;SDS011;55984;48.790;8.990;2023-02-28T23:41:36;7.70;;;4.40;;
68944;SDS011;55984;48.790;8.990;2023-02-28T23:44:01;6.20;;;4.73;;
68944;SDS011;55984;48.790;8.990;2023-02-28T23:46:28;8.00;;;4.17;;
68944;SDS011;55984;48.790;8.990;2023-02-28T23:48:53;6.63;;;4.33;;
68944;SDS011;55984;48.790;8.990;2023-02-28T23:51:19;7.10;;;4.57;;
68944;SDS011;55984;48.790;8.990;2023-02-28T23:53:47;6.33;;;4.37;;
68944;SDS011;55984;48.790;8.990;2023-02-28T23:56:16;9.93;;;4.37;;
68944;SDS011;55984;48.790;8.990;2023-02-28T23:58:45;6.50;;;4.70;;
